createdAt,value
2019-01-15T00:00:33.076Z,36.82
2019-01-15T00:03:37.540Z,36.81
2019-01-15T00:06:41.011Z,36.85
2019-01-15T00:09:44.443Z,36.86
2019-01-15T00:12:47.918Z,36.83
2019-01-15T00:15:52.415Z,36.77
2019-01-15T00:18:57.004Z,36.79
2019-01-15T00:22:01.461Z,36.75
2019-01-15T00:25:06.033Z,36.85
2019-01-15T00:28:09.497Z,36.85
2019-01-15T00:31:14.012Z,36.89
2019-01-15T00:34:19.560Z,36.93
2019-01-15T00:37:22.985Z,36.87
2019-01-15T00:40:26.431Z,36.95
2019-01-15T00:43:29.930Z,36.87
2019-01-15T00:46:34.488Z,36.87
2019-01-15T00:49:38.000Z,36.89
2019-01-15T00:52:41.486Z,36.91
2019-01-15T00:55:45.090Z,37.03
2019-01-15T00:58:48.599Z,36.91
2019-01-15T01:01:52.053Z,37.02
2019-01-15T01:04:55.577Z,36.88
2019-01-15T01:08:00.123Z,36.83
2019-01-15T01:11:03.719Z,36.84
2019-01-15T01:14:07.334Z,36.89
2019-01-15T01:17:10.838Z,36.91
2019-01-15T01:20:16.984Z,36.93
2019-01-15T01:23:20.417Z,36.96
2019-01-15T01:26:23.993Z,36.81
2019-01-15T01:29:27.429Z,36.67
2019-01-15T01:32:30.913Z,36.71
2019-01-15T01:35:34.493Z,36.73
2019-01-15T01:38:38.019Z,36.83
2019-01-15T01:41:41.501Z,36.87
2019-01-15T01:44:45.046Z,36.87
2019-01-15T01:47:48.505Z,36.86
2019-01-15T01:50:52.026Z,36.93
2019-01-15T01:53:55.504Z,36.88
2019-01-15T01:57:00.038Z,36.89
2019-01-15T02:00:12.895Z,36.99
2019-01-15T02:03:16.345Z,36.80
2019-01-15T02:06:19.954Z,36.80
2019-01-15T02:09:26.529Z,36.72
2019-01-15T02:12:36.869Z,36.79
2019-01-15T02:15:36.330Z,36.89
2019-01-15T02:18:39.803Z,36.68
2019-01-15T02:21:43.306Z,36.64
2019-01-15T02:24:46.794Z,36.62
2019-01-15T02:27:53.345Z,36.61
2019-01-15T02:30:57.794Z,36.69
2019-01-15T02:34:03.377Z,36.46
2019-01-15T02:37:06.842Z,36.41
2019-01-15T02:40:11.139Z,36.51
2019-01-15T02:43:14.663Z,36.48
2019-01-15T02:46:18.178Z,36.57
2019-01-15T02:49:22.710Z,36.72
2019-01-15T02:52:29.685Z,36.61
2019-01-15T02:55:33.189Z,36.45
2019-01-15T02:58:36.685Z,36.48
2019-01-15T03:01:41.210Z,36.52
2019-01-15T03:04:51.474Z,36.53
2019-01-15T03:07:54.955Z,36.47
2019-01-15T03:10:59.494Z,36.52
2019-01-15T03:14:04.019Z,36.58
2019-01-15T03:17:10.717Z,36.55
2019-01-15T03:20:14.606Z,36.67
2019-01-15T03:23:18.122Z,36.51
2019-01-15T03:26:21.709Z,36.47
2019-01-15T03:29:25.218Z,36.53
2019-01-15T03:32:28.717Z,36.60
2019-01-15T03:35:32.157Z,36.60
2019-01-15T03:38:35.717Z,36.59
2019-01-15T03:41:39.227Z,36.57
2019-01-15T03:44:43.751Z,36.54
2019-01-15T03:47:47.237Z,36.55
2019-01-15T03:50:50.784Z,36.52
2019-01-15T03:53:56.300Z,36.48
2019-01-15T03:56:59.792Z,36.53
2019-01-15T04:00:03.776Z,36.63
2019-01-15T04:03:07.398Z,36.65
2019-01-15T04:06:11.932Z,36.69
2019-01-15T04:09:16.457Z,36.67
2019-01-15T04:12:19.968Z,36.71
2019-01-15T04:15:25.512Z,36.66
2019-01-15T04:18:30.075Z,36.61
2019-01-15T04:21:39.316Z,36.48
2019-01-15T04:24:42.773Z,36.42
2019-01-15T04:27:46.250Z,36.54
2019-01-15T04:30:49.687Z,36.36
2019-01-15T04:33:53.499Z,36.27
2019-01-15T04:36:58.009Z,36.32
2019-01-15T04:40:03.713Z,36.37
2019-01-15T04:43:07.156Z,36.50
2019-01-15T04:46:10.670Z,36.53
2019-01-15T04:49:14.154Z,36.42
2019-01-15T04:52:18.142Z,36.52
2019-01-15T04:55:22.734Z,36.44
2019-01-15T04:58:28.277Z,36.55
2019-01-15T05:01:32.805Z,36.48
2019-01-15T05:04:36.241Z,36.47
2019-01-15T05:07:40.791Z,36.55
2019-01-15T05:10:44.235Z,36.64
2019-01-15T05:13:47.717Z,36.60
2019-01-15T05:16:51.152Z,36.61
2019-01-15T05:19:54.623Z,36.54
2019-01-15T05:22:58.098Z,36.64
2019-01-15T05:26:01.601Z,36.66
2019-01-15T05:29:07.146Z,36.62
2019-01-15T05:32:10.583Z,36.62
2019-01-15T05:35:14.171Z,36.64
2019-01-15T05:38:17.658Z,36.62
2019-01-15T05:41:21.156Z,36.65
2019-01-15T05:44:24.650Z,36.71
2019-01-15T05:47:28.548Z,36.64
2019-01-15T05:50:44.823Z,36.70
2019-01-15T05:53:50.325Z,36.64
2019-01-15T05:56:53.810Z,36.59
2019-01-15T05:59:59.362Z,36.68
2019-01-15T06:03:02.874Z,36.68
2019-01-15T06:06:06.304Z,36.62
2019-01-15T06:09:11.202Z,36.62
2019-01-15T06:12:14.800Z,36.73
2019-01-15T06:15:18.311Z,36.66
2019-01-15T06:18:22.825Z,36.69
2019-01-15T06:21:26.347Z,36.72
2019-01-15T06:24:30.840Z,36.62
2019-01-15T06:27:34.289Z,36.62
2019-01-15T06:30:38.886Z,36.62
2019-01-15T06:33:42.378Z,36.66
2019-01-15T06:36:45.892Z,36.71
2019-01-15T06:39:49.374Z,36.66
2019-01-15T06:42:52.944Z,36.68
2019-01-15T06:45:57.424Z,36.68
2019-01-15T06:49:01.930Z,36.70
2019-01-15T06:52:05.387Z,36.67
2019-01-15T06:55:12.398Z,36.74
2019-01-15T06:58:15.922Z,36.67
2019-01-15T07:01:19.428Z,36.68
2019-01-15T07:04:22.870Z,36.63
2019-01-15T07:07:26.336Z,36.76
2019-01-15T07:10:32.494Z,36.69
2019-01-15T07:13:36.001Z,36.69
2019-01-15T07:16:39.780Z,36.75
2019-01-15T07:19:49.030Z,36.77
2019-01-15T07:22:52.548Z,36.63
2019-01-15T07:25:56.034Z,36.69
2019-01-15T07:29:01.579Z,36.64
2019-01-15T07:32:05.030Z,36.65
2019-01-15T07:35:09.306Z,36.61
2019-01-15T07:38:12.913Z,36.64
2019-01-15T07:41:22.299Z,36.65
2019-01-15T07:44:25.746Z,36.68
2019-01-15T07:47:30.311Z,36.62
2019-01-15T07:50:33.778Z,36.57
2019-01-15T07:53:37.299Z,36.56
2019-01-15T07:56:40.878Z,36.54
2019-01-15T07:59:44.340Z,36.50
2019-01-15T08:02:48.482Z,36.52
2019-01-15T08:05:54.047Z,36.60
2019-01-15T08:08:58.562Z,36.53
2019-01-15T08:12:02.063Z,36.60
2019-01-15T08:15:06.991Z,36.56
2019-01-15T08:18:10.505Z,36.50
2019-01-15T08:21:17.071Z,36.46
2019-01-15T08:24:20.583Z,36.37
2019-01-15T08:27:24.094Z,36.45
2019-01-15T08:30:33.413Z,36.42
2019-01-15T08:33:37.041Z,36.45
2019-01-15T08:36:40.585Z,36.43
2019-01-15T08:39:44.229Z,36.42
2019-01-15T08:42:48.778Z,36.50
2019-01-15T08:45:55.322Z,36.50
2019-01-15T08:48:58.523Z,36.46
2019-01-15T08:52:02.038Z,36.49
2019-01-15T08:55:05.614Z,36.46
2019-01-15T08:58:10.211Z,36.36
2019-01-15T09:01:13.852Z,36.37
2019-01-15T09:04:19.677Z,36.25
2019-01-15T09:07:23.347Z,35.60
2019-01-15T09:10:27.840Z,35.73
2019-01-15T09:13:34.419Z,35.72
2019-01-15T09:16:37.956Z,35.89
2019-01-15T09:19:41.418Z,35.95
2019-01-15T09:22:44.921Z,36.00
2019-01-15T09:25:48.357Z,35.97
2019-01-15T09:28:51.872Z,36.05
2019-01-15T09:31:57.472Z,36.07
2019-01-15T09:35:02.001Z,36.05
2019-01-15T09:38:07.217Z,36.00
2019-01-15T09:41:10.833Z,36.11
2019-01-15T09:44:14.351Z,36.01
2019-01-15T09:47:18.863Z,36.06
2019-01-15T09:50:23.397Z,36.08
2019-01-15T09:53:26.899Z,36.10
2019-01-15T09:56:30.393Z,36.15
2019-01-15T09:59:33.887Z,36.11
2019-01-15T10:02:37.402Z,36.09
2019-01-15T10:05:40.843Z,36.11
2019-01-15T10:08:44.280Z,36.07
2019-01-15T10:11:47.893Z,36.08
2019-01-15T10:14:52.430Z,36.11
2019-01-15T10:17:55.874Z,36.13
2019-01-15T10:20:59.422Z,36.13
2019-01-15T10:24:02.968Z,36.21
2019-01-15T10:27:07.428Z,36.18
2019-01-15T10:30:17.132Z,36.08
2019-01-15T10:33:42.710Z,36.00
2019-01-15T10:36:45.066Z,35.94
2019-01-15T10:39:50.538Z,35.97
2019-01-15T10:42:54.021Z,35.98
2019-01-15T10:45:57.542Z,36.05
2019-01-15T10:49:01.037Z,36.06
2019-01-15T10:52:04.581Z,36.10
2019-01-15T10:55:09.690Z,36.07
2019-01-15T10:58:17.485Z,36.16
2019-01-15T11:01:18.533Z,36.08
2019-01-15T11:04:22.047Z,36.13
2019-01-15T11:07:25.525Z,36.10
2019-01-15T11:10:29.020Z,35.94
2019-01-15T11:13:32.708Z,35.92
2019-01-15T11:16:38.400Z,35.82
2019-01-15T11:19:42.027Z,36.01
2019-01-15T11:22:45.595Z,36.21
2019-01-15T11:25:49.190Z,36.23
2019-01-15T11:28:52.727Z,36.25
2019-01-15T11:31:56.192Z,36.28
2019-01-15T11:34:59.705Z,36.33
2019-01-15T11:38:03.202Z,36.28
2019-01-15T11:41:06.728Z,36.32
2019-01-15T11:44:10.325Z,36.32
2019-01-15T11:47:13.910Z,36.33
2019-01-15T11:50:17.587Z,36.36
2019-01-15T11:53:21.137Z,36.40
2019-01-15T11:56:25.740Z,36.40
2019-01-15T11:59:29.824Z,36.40
2019-01-15T12:02:51.574Z,36.41
2019-01-15T12:06:07.956Z,36.36
2019-01-15T12:09:29.768Z,36.33
2019-01-15T12:12:46.392Z,36.26
2019-01-15T12:16:08.986Z,36.22
2019-01-15T12:19:22.013Z,36.13
2019-01-15T12:22:52.713Z,36.05
2019-01-15T12:26:10.900Z,36.07
2019-01-15T12:29:26.489Z,36.24
2019-01-15T12:32:49.017Z,36.40
2019-01-15T12:36:10.238Z,36.34
2019-01-15T12:39:31.545Z,36.41
2019-01-15T12:42:56.352Z,36.50
2019-01-15T12:46:18.048Z,36.55
2019-01-15T12:49:46.636Z,36.48
2019-01-15T12:53:07.488Z,36.49
2019-01-15T12:56:29.006Z,36.47
2019-01-15T12:59:56.762Z,36.44
2019-01-15T13:03:22.281Z,36.51
2019-01-15T13:06:37.188Z,36.55
2019-01-15T13:09:58.705Z,36.54
2019-01-15T13:13:22.161Z,36.48
2019-01-15T13:16:58.018Z,36.43
2019-01-15T13:20:12.345Z,36.37
2019-01-15T13:23:33.327Z,36.29
2019-01-15T13:26:55.437Z,36.29
2019-01-15T13:30:18.103Z,36.38
2019-01-15T13:33:36.797Z,36.39
2019-01-15T13:36:46.081Z,36.43
2019-01-15T13:39:57.253Z,36.55
2019-01-15T13:43:24.147Z,36.83
2019-01-15T13:46:43.980Z,36.85
2019-01-15T13:50:07.268Z,36.91
2019-01-15T13:53:23.026Z,36.94
2019-01-15T13:56:35.888Z,36.94
2019-01-15T13:59:59.209Z,36.92
2019-01-15T14:03:12.855Z,36.96
2019-01-15T14:06:37.336Z,36.95
2019-01-15T14:09:59.128Z,36.93
2019-01-15T14:13:21.634Z,36.98
2019-01-15T14:16:50.832Z,36.96
2019-01-15T14:20:16.275Z,36.92
2019-01-15T14:23:43.197Z,36.99
2019-01-15T14:26:53.864Z,36.96
2019-01-15T14:30:15.227Z,36.95
2019-01-15T14:33:33.127Z,36.96
2019-01-15T14:36:54.351Z,36.93
2019-01-15T14:40:15.504Z,36.93
2019-01-15T14:43:36.699Z,36.93
2019-01-15T14:47:11.415Z,36.93
2019-01-15T14:50:36.895Z,36.90
2019-01-15T14:54:12.546Z,36.94
2019-01-15T14:57:29.237Z,36.97
2019-01-15T15:01:05.224Z,37.12
2019-01-15T15:04:22.983Z,37.27
2019-01-15T15:07:54.517Z,37.26
2019-01-15T15:11:11.759Z,37.23
2019-01-15T15:14:35.086Z,37.28
2019-01-15T15:17:49.602Z,37.29
2019-01-15T15:21:03.212Z,37.22
2019-01-15T15:24:20.956Z,37.23
2019-01-15T15:27:43.675Z,37.29
2019-01-15T15:31:01.269Z,37.20
2019-01-15T15:34:22.520Z,37.24
2019-01-15T15:37:44.099Z,37.20
2019-01-15T15:40:58.039Z,37.26
2019-01-15T15:44:26.335Z,37.26
2019-01-15T15:47:48.890Z,37.23
2019-01-15T15:51:10.400Z,37.22
2019-01-15T15:54:42.206Z,37.25
2019-01-15T15:58:05.837Z,37.21
2019-01-15T16:01:40.728Z,37.23
2019-01-15T16:04:59.257Z,37.17
2019-01-15T16:08:20.408Z,37.16
2019-01-15T16:11:42.087Z,37.17
2019-01-15T16:14:57.725Z,37.20
2019-01-15T16:18:23.615Z,37.12
2019-01-15T16:21:50.729Z,37.10
2019-01-15T16:25:06.518Z,37.08
2019-01-15T16:28:25.898Z,37.05
2019-01-15T16:31:36.160Z,37.00
2019-01-15T16:35:07.881Z,36.99
2019-01-15T16:38:33.222Z,37.02
2019-01-15T16:42:05.650Z,37.11
2019-01-15T16:45:28.004Z,37.19
2019-01-15T16:48:50.702Z,37.42
2019-01-15T16:52:12.454Z,37.47
2019-01-15T16:55:25.341Z,37.48
2019-01-15T16:58:46.808Z,37.50
2019-01-15T17:02:21.562Z,37.50
2019-01-15T17:05:47.215Z,37.47
2019-01-15T17:09:08.616Z,37.50
2019-01-15T17:12:34.635Z,37.47
2019-01-15T17:16:00.198Z,37.46
2019-01-15T17:19:21.854Z,37.46
2019-01-15T17:22:43.329Z,37.52
2019-01-15T17:26:04.966Z,37.53
2019-01-15T17:29:15.933Z,37.55
2019-01-15T17:32:29.066Z,37.55
2019-01-15T17:35:44.655Z,37.56
2019-01-15T17:39:09.602Z,37.59
2019-01-15T17:42:30.807Z,37.66
2019-01-15T17:46:02.334Z,37.66
2019-01-15T17:49:33.983Z,37.60
2019-01-15T17:52:55.614Z,37.57
2019-01-15T17:56:30.549Z,37.55
2019-01-15T17:59:56.282Z,37.55
2019-01-15T18:03:21.838Z,37.53
2019-01-15T18:06:43.243Z,37.49
2019-01-15T18:10:04.772Z,37.46
2019-01-15T18:13:25.534Z,37.41
2019-01-15T18:16:48.738Z,37.32
2019-01-15T18:20:09.772Z,37.19
2019-01-15T18:23:41.417Z,37.14
2019-01-15T18:27:12.948Z,37.09
2019-01-15T18:30:38.365Z,37.10
2019-01-15T18:33:59.922Z,37.06
2019-01-15T18:37:24.055Z,37.07
2019-01-15T18:40:49.058Z,37.08
2019-01-15T18:44:13.265Z,37.05
2019-01-15T18:47:34.394Z,36.91
2019-01-15T18:51:08.797Z,36.93
2019-01-15T18:54:43.425Z,36.84
2019-01-15T18:58:10.801Z,36.79
2019-01-15T19:01:24.584Z,36.80
2019-01-15T19:04:37.456Z,36.77
2019-01-15T19:08:03.107Z,36.78
2019-01-15T19:11:24.311Z,36.66
2019-01-15T19:14:49.942Z,36.75
2019-01-15T19:18:15.425Z,36.62
2019-01-15T19:21:47.324Z,36.58
2019-01-15T19:25:08.487Z,36.47
2019-01-15T19:28:29.886Z,36.58
2019-01-15T19:31:48.577Z,36.52
2019-01-15T19:35:09.731Z,36.36
2019-01-15T19:38:31.231Z,36.37
2019-01-15T19:41:52.610Z,36.28
2019-01-15T19:45:08.424Z,36.07
2019-01-15T19:48:33.071Z,35.85
2019-01-15T19:51:54.133Z,35.77
2019-01-15T19:55:09.216Z,35.71
2019-01-15T19:58:46.947Z,35.68
2019-01-15T20:02:06.391Z,35.99
2019-01-15T20:05:24.423Z,36.01
2019-01-15T20:08:45.769Z,36.01
2019-01-15T20:12:04.516Z,35.94
2019-01-15T20:15:33.693Z,35.94
2019-01-15T20:18:50.073Z,35.93
2019-01-15T20:22:12.824Z,35.93
2019-01-15T20:25:26.867Z,35.83
2019-01-15T20:28:41.382Z,35.83
2019-01-15T20:32:10.048Z,35.73
2019-01-15T20:35:31.403Z,35.65
2019-01-15T20:38:53.646Z,35.86
2019-01-15T20:42:08.286Z,35.74
2019-01-15T20:45:22.755Z,35.71
2019-01-15T20:48:36.291Z,35.71
2019-01-15T20:51:56.064Z,35.72
2019-01-15T20:55:27.775Z,35.68
2019-01-15T20:58:45.879Z,35.64
2019-01-15T21:02:01.872Z,35.68
2019-01-15T21:05:17.762Z,35.66
2019-01-15T21:08:56.739Z,35.59
2019-01-15T21:12:18.203Z,35.56
2019-01-15T21:15:39.741Z,35.52
2019-01-15T21:19:17.451Z,35.42
2019-01-15T21:22:30.331Z,36.15
2019-01-15T21:25:44.723Z,35.94
2019-01-15T21:29:22.435Z,35.79
2019-01-15T21:32:43.857Z,35.69
2019-01-15T21:36:02.615Z,35.70
2019-01-15T21:39:32.420Z,35.55
2019-01-15T21:42:48.614Z,35.46
2019-01-15T21:46:09.995Z,35.43
2019-01-15T21:49:24.491Z,35.40
2019-01-15T21:52:38.754Z,35.27
2019-01-15T21:56:16.695Z,35.28
2019-01-15T21:59:33.782Z,35.24
2019-01-15T22:02:55.007Z,35.20
2019-01-15T22:06:26.865Z,35.14
2019-01-15T22:09:47.556Z,35.11
2019-01-15T22:13:10.931Z,35.14
2019-01-15T22:16:32.961Z,35.09
2019-01-15T22:20:10.906Z,35.04
2019-01-15T22:23:48.559Z,35.04
2019-01-15T22:27:12.063Z,34.99
2019-01-15T22:30:28.755Z,34.98
2019-01-15T22:33:41.878Z,34.97
2019-01-15T22:37:11.593Z,34.95
2019-01-15T22:40:27.802Z,34.94
2019-01-15T22:43:41.213Z,34.88
2019-01-15T22:47:03.763Z,34.86
2019-01-15T22:50:30.122Z,34.85
2019-01-15T22:53:52.049Z,34.86
2019-01-15T22:57:19.907Z,34.83
2019-01-15T23:01:02.275Z,34.80
2019-01-15T23:04:20.746Z,34.74
2019-01-15T23:07:36.232Z,34.71
2019-01-15T23:10:57.894Z,34.69
2019-01-15T23:14:28.363Z,34.73
2019-01-15T23:18:02.490Z,34.69
2019-01-15T23:21:22.810Z,34.67
2019-01-15T23:24:45.485Z,34.64
2019-01-15T23:28:07.033Z,34.60
2019-01-15T23:31:24.231Z,34.63
2019-01-15T23:34:45.764Z,34.62
2019-01-15T23:38:02.864Z,34.59
2019-01-15T23:41:28.184Z,34.59
2019-01-15T23:44:52.268Z,34.56
2019-01-15T23:48:09.870Z,34.54
2019-01-15T23:51:22.929Z,34.54
2019-01-15T23:54:39.740Z,34.52
2019-01-15T23:58:15.688Z,34.51
